createdAt,value
2016-05-22T00:00:02.685Z,948.8
2016-05-22T00:00:12.813Z,948.9
2016-05-22T00:00:22.938Z,948.9
2016-05-22T00:00:32.532Z,948.8
2016-05-22T00:00:42.938Z,948.8
2016-05-22T00:00:52.954Z,948.8
2016-05-22T00:01:02.938Z,948.9
2016-05-22T00:01:12.815Z,948.8
2016-05-22T00:01:22.987Z,948.8
2016-05-22T00:01:32.674Z,948.9
2016-05-22T00:01:42.924Z,948.7
2016-05-22T00:01:52.784Z,948.8
2016-05-22T00:02:02.893Z,948.8
2016-05-22T00:02:12.880Z,948.8
2016-05-22T00:02:22.943Z,948.8
2016-05-22T00:02:32.755Z,948.8
2016-05-22T00:02:42.912Z,948.7
2016-05-22T00:02:52.927Z,948.8
2016-05-22T00:03:02.896Z,948.8
2016-05-22T00:03:12.790Z,948.8
2016-05-22T00:03:22.571Z,948.8
2016-05-22T00:03:32.915Z,948.8
2016-05-22T00:03:42.790Z,948.8
2016-05-22T00:03:52.946Z,948.8
2016-05-22T00:04:02.852Z,948.8
2016-05-22T00:04:12.917Z,948.7
2016-05-22T00:04:22.901Z,948.8
2016-05-22T00:04:32.870Z,948.8
2016-05-22T00:04:42.589Z,948.8
2016-05-22T00:04:52.901Z,948.8
2016-05-22T00:05:07.073Z,948.8
2016-05-22T00:05:18.576Z,948.8
2016-05-22T00:05:25.638Z,948.8
2016-05-22T00:05:35.420Z,948.8
2016-05-22T00:05:45.373Z,948.8
2016-05-22T00:05:55.404Z,948.8
2016-05-22T00:06:05.388Z,948.8
2016-05-22T00:06:15.235Z,948.8
2016-05-22T00:06:25.235Z,948.8
2016-05-22T00:06:35.376Z,948.8
2016-05-22T00:06:45.235Z,948.8
2016-05-22T00:06:55.376Z,948.8
2016-05-22T00:07:05.048Z,948.8
2016-05-22T00:07:15.331Z,948.8
2016-05-22T00:07:25.175Z,948.8
2016-05-22T00:07:35.159Z,948.8
2016-05-22T00:07:45.206Z,948.8
2016-05-22T00:07:55.347Z,948.7
2016-05-22T00:08:05.206Z,948.8
2016-05-22T00:08:15.022Z,948.8
2016-05-22T00:08:25.351Z,948.8
2016-05-22T00:08:35.179Z,948.8
2016-05-22T00:08:45.038Z,948.8
2016-05-22T00:08:55.241Z,948.8
2016-05-22T00:09:05.163Z,948.8
2016-05-22T00:09:15.306Z,948.7
2016-05-22T00:09:25.149Z,948.8
2016-05-22T00:09:35.353Z,948.8
2016-05-22T00:09:45.181Z,948.8
2016-05-22T00:09:55.353Z,948.8
2016-05-22T00:10:05.212Z,948.8
2016-05-22T00:10:15.026Z,948.8
2016-05-22T00:10:25.323Z,948.8
2016-05-22T00:10:35.339Z,948.8
2016-05-22T00:10:45.167Z,948.8
2016-05-22T00:10:55.355Z,948.8
2016-05-22T00:11:05.323Z,948.7
2016-05-22T00:11:15.671Z,948.8
2016-05-22T00:11:25.687Z,948.8
2016-05-22T00:11:35.140Z,948.8
2016-05-22T00:11:45.218Z,948.8
2016-05-22T00:11:55.359Z,948.8
2016-05-22T00:12:05.327Z,948.8
2016-05-22T00:12:15.673Z,948.8
2016-05-22T00:12:25.173Z,948.8
2016-05-22T00:12:35.111Z,948.8
2016-05-22T00:12:45.189Z,948.8
2016-05-22T00:12:55.064Z,948.8
2016-05-22T00:13:05.282Z,948.8
2016-05-22T00:13:19.628Z,948.8
2016-05-22T00:13:31.191Z,948.8
2016-05-22T00:13:41.363Z,948.8
2016-05-22T00:13:47.894Z,948.8
2016-05-22T00:13:57.878Z,948.8
2016-05-22T00:14:07.894Z,948.9
2016-05-22T00:14:18.929Z,948.9
2016-05-22T00:14:28.929Z,948.8
2016-05-22T00:14:38.554Z,948.9
2016-05-22T00:14:47.601Z,948.9
2016-05-22T00:14:58.023Z,948.8
2016-05-22T00:15:07.992Z,948.9
2016-05-22T00:15:18.009Z,948.8
2016-05-22T00:15:28.025Z,948.9
2016-05-22T00:15:38.025Z,949
2016-05-22T00:15:47.869Z,949
2016-05-22T00:15:58.009Z,949
2016-05-22T00:16:08.025Z,949
2016-05-22T00:16:17.997Z,949
2016-05-22T00:16:27.997Z,949
2016-05-22T00:16:37.997Z,949
2016-05-22T00:16:47.997Z,949
2016-05-22T00:16:57.997Z,949.1
2016-05-22T00:17:07.997Z,949
2016-05-22T00:17:17.702Z,949
2016-05-22T00:17:27.999Z,949
2016-05-22T00:17:37.842Z,949.2
2016-05-22T00:17:47.967Z,949
2016-05-22T00:17:57.999Z,949.1
2016-05-22T00:18:07.983Z,949
2016-05-22T00:18:17.986Z,949
2016-05-22T00:18:27.845Z,949.1
2016-05-22T00:18:37.970Z,949
2016-05-22T00:18:47.970Z,949.1
2016-05-22T00:18:57.986Z,949.1
2016-05-22T00:19:07.955Z,949
2016-05-22T00:19:17.973Z,949.1
2016-05-22T00:19:27.958Z,949.1
2016-05-22T00:19:37.958Z,949.1
2016-05-22T00:19:47.958Z,949.1
2016-05-22T00:19:57.801Z,949.2
2016-05-22T00:20:07.661Z,949.2
2016-05-22T00:20:17.944Z,949.2
2016-05-22T00:20:27.944Z,949.2
2016-05-22T00:20:37.944Z,949.2
2016-05-22T00:20:47.960Z,949.2
2016-05-22T00:20:57.928Z,949.3
2016-05-22T00:21:07.647Z,949.2
2016-05-22T00:21:17.947Z,949.2
2016-05-22T00:21:28.135Z,949.2
2016-05-22T00:21:42.431Z,949.2
2016-05-22T00:21:53.525Z,949.2
2016-05-22T00:21:59.838Z,949.2
2016-05-22T00:22:09.635Z,949.2
2016-05-22T00:22:19.622Z,949.2
2016-05-22T00:22:29.763Z,949.2
2016-05-22T00:22:39.778Z,949.2
2016-05-22T00:22:49.778Z,949.3
2016-05-22T00:22:59.778Z,949.3
2016-05-22T00:23:09.638Z,949.2
2016-05-22T00:23:19.765Z,949.3
2016-05-22T00:23:29.765Z,949.3
2016-05-22T00:23:39.765Z,949.3
2016-05-22T00:23:49.452Z,949.2
2016-05-22T00:23:59.624Z,949.3
2016-05-22T00:24:09.796Z,949.3
2016-05-22T00:24:19.831Z,949.3
2016-05-22T00:24:29.628Z,949.3
2016-05-22T00:24:39.769Z,949.4
2016-05-22T00:24:49.815Z,949.4
2016-05-22T00:24:59.769Z,949.4
2016-05-22T00:25:09.769Z,949.5
2016-05-22T00:25:19.974Z,949.5
2016-05-22T00:25:29.880Z,949.5
2016-05-22T00:25:40.286Z,949.5
2016-05-22T00:25:49.755Z,949.6
2016-05-22T00:25:59.739Z,949.5
2016-05-22T00:26:09.739Z,949.6
2016-05-22T00:26:19.726Z,949.5
2016-05-22T00:26:29.585Z,949.6
2016-05-22T00:26:39.569Z,949.6
2016-05-22T00:26:49.726Z,949.7
2016-05-22T00:26:59.429Z,949.6
2016-05-22T00:27:09.710Z,949.7
2016-05-22T00:27:20.511Z,949.6
2016-05-22T00:27:30.105Z,949.6
2016-05-22T00:27:39.667Z,949.6
2016-05-22T00:27:50.339Z,949.6
2016-05-22T00:27:59.823Z,949.7
2016-05-22T00:28:10.105Z,949.7
2016-05-22T00:28:19.404Z,949.8
2016-05-22T00:28:29.825Z,949.7
2016-05-22T00:28:39.716Z,949.8
2016-05-22T00:28:49.575Z,949.7
2016-05-22T00:28:59.544Z,949.7
2016-05-22T00:29:11.966Z,949.8
2016-05-22T00:29:19.719Z,949.8
2016-05-22T00:29:29.688Z,949.8
2016-05-22T00:29:39.391Z,949.8
2016-05-22T00:29:49.719Z,949.8
2016-05-22T00:30:02.407Z,949.8
2016-05-22T00:30:13.705Z,949.8
2016-05-22T00:30:20.018Z,949.8
2016-05-22T00:30:29.955Z,949.8
2016-05-22T00:30:39.955Z,949.9
2016-05-22T00:30:49.955Z,949.9
2016-05-22T00:30:59.955Z,949.9
2016-05-22T00:31:09.799Z,949.9
2016-05-22T00:31:19.958Z,949.9
2016-05-22T00:31:29.943Z,949.9
2016-05-22T00:31:39.943Z,950
2016-05-22T00:31:49.958Z,949.9
2016-05-22T00:31:59.943Z,950
2016-05-22T00:32:09.927Z,950
2016-05-22T00:32:19.946Z,950
2016-05-22T00:32:29.930Z,950
2016-05-22T00:32:39.790Z,950
2016-05-22T00:32:49.790Z,950
2016-05-22T00:32:59.930Z,950
2016-05-22T00:33:09.758Z,950.1
2016-05-22T00:33:19.963Z,950
2016-05-22T00:33:29.917Z,950
2016-05-22T00:33:39.917Z,950.1
2016-05-22T00:33:49.917Z,950.1
2016-05-22T00:33:59.917Z,950.1
2016-05-22T00:34:09.917Z,950.1
2016-05-22T00:34:19.935Z,950.1
2016-05-22T00:34:29.748Z,950.2
2016-05-22T00:34:39.888Z,950.2
2016-05-22T00:34:49.779Z,950.1
2016-05-22T00:34:59.888Z,950.1
2016-05-22T00:35:09.920Z,950.2
2016-05-22T00:35:19.891Z,950.1
2016-05-22T00:35:29.594Z,950.2
2016-05-22T00:35:39.751Z,950.2
2016-05-22T00:35:49.766Z,950.2
2016-05-22T00:35:59.751Z,950.2
2016-05-22T00:36:09.876Z,950.2
2016-05-22T00:36:19.754Z,950.2
2016-05-22T00:36:29.894Z,950.2
2016-05-22T00:36:39.879Z,950.2
2016-05-22T00:36:49.738Z,950.2
2016-05-22T00:36:59.738Z,950.2
2016-05-22T00:37:09.707Z,950.2
2016-05-22T00:37:19.881Z,950.2
2016-05-22T00:37:29.865Z,950.2
2016-05-22T00:37:39.865Z,950.2
2016-05-22T00:37:49.881Z,950.2
2016-05-22T00:37:59.771Z,950.3
2016-05-22T00:38:09.709Z,950.3
2016-05-22T00:38:19.899Z,950.3
2016-05-22T00:38:29.868Z,950.2
2016-05-22T00:38:39.743Z,950.2
2016-05-22T00:38:49.899Z,950.3
2016-05-22T00:38:59.915Z,950.2
2016-05-22T00:39:09.712Z,950.2
2016-05-22T00:39:19.715Z,950.3
2016-05-22T00:39:29.684Z,950.3
2016-05-22T00:39:39.699Z,950.2
2016-05-22T00:39:49.840Z,950.3
2016-05-22T00:39:59.559Z,950.3
2016-05-22T00:40:09.840Z,950.3
2016-05-22T00:40:19.842Z,950.3
2016-05-22T00:40:29.842Z,950.3
2016-05-22T00:40:39.873Z,950.3
2016-05-22T00:40:49.670Z,950.2
2016-05-22T00:40:59.826Z,950.3
2016-05-22T00:41:09.529Z,950.3
2016-05-22T00:41:19.657Z,950.3
2016-05-22T00:41:29.860Z,950.4
2016-05-22T00:41:39.673Z,950.3
2016-05-22T00:41:49.907Z,950.3
2016-05-22T00:41:59.814Z,950.2
2016-05-22T00:42:09.673Z,950.2
2016-05-22T00:42:19.942Z,950.3
2016-05-22T00:42:29.785Z,950.3
2016-05-22T00:42:39.863Z,950.3
2016-05-22T00:42:50.051Z,950.3
2016-05-22T00:42:59.676Z,950.3
2016-05-22T00:43:10.082Z,950.2
2016-05-22T00:43:19.819Z,950.3
2016-05-22T00:43:29.928Z,950.2
2016-05-22T00:43:39.803Z,950.2
2016-05-22T00:43:54.615Z,950.3
2016-05-22T00:44:06.084Z,950.2
2016-05-22T00:44:15.635Z,950.2
2016-05-22T00:44:22.791Z,950.3
2016-05-22T00:44:33.276Z,950.3
2016-05-22T00:44:42.776Z,950.2
2016-05-22T00:44:52.948Z,950.2
2016-05-22T00:45:02.791Z,950.2
2016-05-22T00:45:12.760Z,950.2
2016-05-22T00:45:22.934Z,950.2
2016-05-22T00:45:32.856Z,950.2
2016-05-22T00:45:42.762Z,950.2
2016-05-22T00:45:52.918Z,950.3
2016-05-22T00:46:02.762Z,950.1
2016-05-22T00:46:12.871Z,950.2
2016-05-22T00:46:22.764Z,950.1
2016-05-22T00:46:32.748Z,950.2
2016-05-22T00:46:42.889Z,950.1
2016-05-22T00:46:53.186Z,950.2
2016-05-22T00:47:02.889Z,950.1
2016-05-22T00:47:12.889Z,950.2
2016-05-22T00:47:22.893Z,950.1
2016-05-22T00:47:32.877Z,950.1
2016-05-22T00:47:42.612Z,950.1
2016-05-22T00:47:52.909Z,950.1
2016-05-22T00:48:03.096Z,950.1
2016-05-22T00:48:12.877Z,950.1
2016-05-22T00:48:22.879Z,950.1
2016-05-22T00:48:32.645Z,950.1
2016-05-22T00:48:42.708Z,950.2
2016-05-22T00:48:52.879Z,950
2016-05-22T00:49:02.864Z,950.1
2016-05-22T00:49:12.864Z,950
2016-05-22T00:49:22.881Z,950.1
2016-05-22T00:49:32.866Z,950.1
2016-05-22T00:49:42.569Z,950.1
2016-05-22T00:49:52.866Z,950.1
2016-05-22T00:50:03.225Z,950.1
2016-05-22T00:50:12.850Z,950.1
2016-05-22T00:50:22.697Z,950.1
2016-05-22T00:50:32.713Z,950.1
2016-05-22T00:50:42.838Z,950.1
2016-05-22T00:50:52.884Z,950.1
2016-05-22T00:51:02.838Z,950.2
2016-05-22T00:51:12.681Z,950.2
2016-05-22T00:51:22.856Z,950.2
2016-05-22T00:51:32.856Z,950.2
2016-05-22T00:51:42.856Z,950.2
2016-05-22T00:51:52.856Z,950.3
2016-05-22T00:52:03.012Z,950.2
2016-05-22T00:52:12.684Z,950.2
2016-05-22T00:52:22.828Z,950.3
2016-05-22T00:52:32.672Z,950.3
2016-05-22T00:52:42.890Z,950.3
2016-05-22T00:52:52.672Z,950.3
2016-05-22T00:53:02.672Z,950.3
2016-05-22T00:53:12.812Z,950.3
2016-05-22T00:53:22.814Z,950.3
2016-05-22T00:53:32.799Z,950.2
2016-05-22T00:53:42.642Z,950.2
2016-05-22T00:53:52.830Z,950.3
2016-05-22T00:54:02.642Z,950.3
2016-05-22T00:54:12.642Z,950.3
2016-05-22T00:54:22.661Z,950.3
2016-05-22T00:54:32.802Z,950.3
2016-05-22T00:54:42.802Z,950.3
2016-05-22T00:54:52.880Z,950.2
2016-05-22T00:55:02.786Z,950.3
2016-05-22T00:55:12.802Z,950.3
2016-05-22T00:55:22.648Z,950.3
2016-05-22T00:55:32.648Z,950.3
2016-05-22T00:55:43.055Z,950.3
2016-05-22T00:55:52.789Z,950.3
2016-05-22T00:56:02.789Z,950.4
2016-05-22T00:56:12.773Z,950.3
2016-05-22T00:56:22.916Z,950.3
2016-05-22T00:56:32.775Z,950.3
2016-05-22T00:56:42.791Z,950.4
2016-05-22T00:56:52.791Z,950.3
2016-05-22T00:57:02.979Z,950.4
2016-05-22T00:57:12.822Z,950.3
2016-05-22T00:57:22.825Z,950.3
2016-05-22T00:57:32.950Z,950.3
2016-05-22T00:57:43.403Z,950.3
2016-05-22T00:57:52.153Z,950.3
2016-05-22T00:58:02.669Z,950.3
2016-05-22T00:58:12.622Z,950.4
2016-05-22T00:58:22.766Z,950.3
2016-05-22T00:58:32.906Z,950.5
2016-05-22T00:58:42.735Z,950.3
2016-05-22T00:58:52.625Z,950.5
2016-05-22T00:59:02.578Z,950.4
2016-05-22T00:59:12.750Z,950.4
2016-05-22T00:59:22.769Z,950.3
2016-05-22T00:59:32.581Z,950.5
2016-05-22T00:59:42.738Z,950.4
2016-05-22T00:59:52.753Z,950.4
2016-05-22T01:00:02.722Z,950.4
2016-05-22T01:00:12.425Z,950.4
2016-05-22T01:00:22.740Z,950.5
2016-05-22T01:00:32.927Z,950.5
2016-05-22T01:00:42.708Z,950.5
2016-05-22T01:00:52.724Z,950.4
2016-05-22T01:01:02.568Z,950.5
2016-05-22T01:01:12.411Z,950.5
2016-05-22T01:01:22.727Z,950.6
2016-05-22T01:01:32.555Z,950.6
2016-05-22T01:01:42.727Z,950.5
2016-05-22T01:01:52.711Z,950.5
2016-05-22T01:02:02.539Z,950.6
2016-05-22T01:02:12.571Z,950.5
2016-05-22T01:02:22.588Z,950.6
2016-05-22T01:02:32.682Z,950.6
2016-05-22T01:02:42.541Z,950.6
2016-05-22T01:02:52.541Z,950.6
2016-05-22T01:03:02.729Z,950.6
2016-05-22T01:03:12.698Z,950.6
2016-05-22T01:03:22.544Z,950.6
2016-05-22T01:03:32.779Z,950.6
2016-05-22T01:03:42.357Z,950.7
2016-05-22T01:03:52.544Z,950.7
2016-05-22T01:04:02.669Z,950.7
2016-05-22T01:04:12.763Z,950.7
2016-05-22T01:04:22.672Z,950.7
2016-05-22T01:04:32.516Z,950.7
2016-05-22T01:04:42.657Z,950.7
2016-05-22T01:04:52.672Z,950.7
2016-05-22T01:05:02.657Z,950.8
2016-05-22T01:05:12.672Z,950.8
2016-05-22T01:05:22.924Z,950.8
2016-05-22T01:05:32.503Z,950.8
2016-05-22T01:05:42.659Z,950.8
2016-05-22T01:05:52.378Z,950.8
2016-05-22T01:06:02.503Z,950.8
2016-05-22T01:06:12.643Z,950.8
2016-05-22T01:06:22.677Z,950.8
2016-05-22T01:06:32.365Z,950.8
2016-05-22T01:06:42.646Z,950.8
2016-05-22T01:06:52.646Z,950.8
2016-05-22T01:07:02.818Z,950.8
2016-05-22T01:07:12.646Z,950.9
2016-05-22T01:07:22.493Z,950.8
2016-05-22T01:07:32.634Z,950.9
2016-05-22T01:07:42.493Z,950.9
2016-05-22T01:07:52.634Z,950.8
2016-05-22T01:08:02.462Z,950.8
2016-05-22T01:08:12.618Z,950.9
2016-05-22T01:08:22.637Z,950.9
2016-05-22T01:08:32.637Z,950.9
2016-05-22T01:08:42.605Z,950.9
2016-05-22T01:08:52.324Z,951
2016-05-22T01:09:02.465Z,951
2016-05-22T01:09:12.605Z,950.9
2016-05-22T01:09:22.607Z,950.9
2016-05-22T01:09:32.592Z,951
2016-05-22T01:09:42.592Z,951
2016-05-22T01:09:52.607Z,951
2016-05-22T01:10:02.592Z,951
2016-05-22T01:10:12.607Z,951
2016-05-22T01:10:22.438Z,951
2016-05-22T01:10:32.610Z,951
2016-05-22T01:10:42.282Z,951.1
2016-05-22T01:10:52.595Z,951.1
2016-05-22T01:11:02.595Z,951
2016-05-22T01:11:12.438Z,951.1
2016-05-22T01:11:22.566Z,951.1
2016-05-22T01:11:32.598Z,951.1
2016-05-22T01:11:42.566Z,951.1
2016-05-22T01:11:52.520Z,951.1
2016-05-22T01:12:02.410Z,951.1
2016-05-22T01:12:12.582Z,951
2016-05-22T01:12:22.631Z,951.1
2016-05-22T01:12:33.037Z,951.1
2016-05-22T01:12:43.522Z,951.1
2016-05-22T01:12:53.006Z,951.2
2016-05-22T01:13:03.131Z,951.2
2016-05-22T01:13:12.397Z,951.2
2016-05-22T01:13:22.478Z,951.2
2016-05-22T01:13:32.400Z,951.2
2016-05-22T01:13:42.540Z,951.2
2016-05-22T01:13:52.681Z,951.3
2016-05-22T01:14:02.228Z,951.2
2016-05-22T01:14:12.696Z,951.2
2016-05-22T01:14:22.559Z,951.2
2016-05-22T01:14:32.543Z,951.4
2016-05-22T01:14:42.512Z,951.3
2016-05-22T01:14:52.543Z,951.3
2016-05-22T01:15:02.512Z,951.3
2016-05-22T01:15:12.512Z,951.3
2016-05-22T01:15:22.530Z,951.3
2016-05-22T01:15:32.373Z,951.3
2016-05-22T01:15:42.498Z,951.4
2016-05-22T01:15:52.545Z,951.4
2016-05-22T01:16:02.498Z,951.4
2016-05-22T01:16:12.358Z,951.3
2016-05-22T01:16:22.205Z,951.4
2016-05-22T01:16:32.502Z,951.4
2016-05-22T01:16:42.518Z,951.4
2016-05-22T01:16:52.487Z,951.5
2016-05-22T01:17:02.205Z,951.5
2016-05-22T01:17:12.502Z,951.5
2016-05-22T01:17:22.489Z,951.4
2016-05-22T01:17:32.504Z,951.5
2016-05-22T01:17:42.489Z,951.5
2016-05-22T01:17:52.348Z,951.5
2016-05-22T01:18:02.332Z,951.6
2016-05-22T01:18:12.489Z,951.5
2016-05-22T01:18:22.491Z,951.6
2016-05-22T01:18:32.475Z,951.6
2016-05-22T01:18:42.334Z,951.6
2016-05-22T01:18:52.475Z,951.6
2016-05-22T01:19:02.334Z,951.6
2016-05-22T01:19:12.475Z,951.6
2016-05-22T01:19:22.462Z,951.6
2016-05-22T01:19:32.197Z,951.6
2016-05-22T01:19:42.306Z,951.6
2016-05-22T01:19:52.462Z,951.7
2016-05-22T01:20:02.150Z,951.6
2016-05-22T01:20:12.478Z,951.8
2016-05-22T01:20:22.465Z,951.7
2016-05-22T01:20:32.481Z,951.6
2016-05-22T01:20:42.450Z,951.7
2016-05-22T01:20:52.294Z,951.7
2016-05-22T01:21:02.465Z,951.7
2016-05-22T01:21:12.450Z,951.8
2016-05-22T01:21:22.437Z,951.7
2016-05-22T01:21:32.312Z,951.8
2016-05-22T01:21:42.281Z,951.9
2016-05-22T01:21:52.297Z,951.8
2016-05-22T01:22:02.437Z,951.7
2016-05-22T01:22:12.422Z,951.8
2016-05-22T01:22:22.268Z,951.8
2016-05-22T01:22:32.300Z,951.9
2016-05-22T01:22:42.425Z,951.9
2016-05-22T01:22:52.440Z,952
2016-05-22T01:23:02.268Z,951.9
2016-05-22T01:23:12.456Z,951.9
2016-05-22T01:23:22.270Z,951.9
2016-05-22T01:23:32.427Z,951.9
2016-05-22T01:23:42.255Z,951.9
2016-05-22T01:23:52.270Z,952
2016-05-22T01:24:02.255Z,952
2016-05-22T01:24:12.411Z,952
2016-05-22T01:24:22.242Z,952
2016-05-22T01:24:32.398Z,952
2016-05-22T01:24:42.414Z,952.1
2016-05-22T01:24:52.398Z,952
2016-05-22T01:25:02.398Z,952
2016-05-22T01:25:12.398Z,952
2016-05-22T01:25:22.400Z,952.1
2016-05-22T01:25:32.400Z,952.1
2016-05-22T01:25:42.385Z,952.1
2016-05-22T01:25:52.385Z,952.2
2016-05-22T01:26:02.385Z,952.1
2016-05-22T01:26:12.400Z,952.2
2016-05-22T01:26:22.372Z,952.2
2016-05-22T01:26:32.372Z,952.2
2016-05-22T01:26:42.372Z,952.2
2016-05-22T01:26:52.372Z,952.2
2016-05-22T01:27:02.356Z,952.2
2016-05-22T01:27:12.903Z,952.3
2016-05-22T01:27:22.188Z,952.2
2016-05-22T01:27:32.875Z,952.3
2016-05-22T01:27:42.406Z,952.3
2016-05-22T01:27:52.750Z,952.3
2016-05-22T01:28:02.500Z,952.3
2016-05-22T01:28:12.219Z,952.3
2016-05-22T01:28:22.361Z,952.3
2016-05-22T01:28:32.346Z,952.2
2016-05-22T01:28:42.190Z,952.3
2016-05-22T01:28:52.205Z,952.4
2016-05-22T01:29:02.190Z,952.3
2016-05-22T01:29:12.330Z,952.3
2016-05-22T01:29:22.364Z,952.3
2016-05-22T01:29:32.364Z,952.3
2016-05-22T01:29:42.036Z,952.3
2016-05-22T01:29:52.333Z,952.4
2016-05-22T01:30:02.177Z,952.3
2016-05-22T01:30:12.208Z,952.4
2016-05-22T01:30:22.335Z,952.5
2016-05-22T01:30:32.335Z,952.5
2016-05-22T01:30:42.179Z,952.4
2016-05-22T01:30:52.320Z,952.4
2016-05-22T01:31:02.007Z,952.4
2016-05-22T01:31:12.320Z,952.5
2016-05-22T01:31:22.307Z,952.4
2016-05-22T01:31:32.307Z,952.5
2016-05-22T01:31:42.323Z,952.5
2016-05-22T01:31:52.307Z,952.6
2016-05-22T01:32:02.291Z,952.5
2016-05-22T01:32:12.151Z,952.5
2016-05-22T01:32:22.310Z,952.6
2016-05-22T01:32:32.294Z,952.5
2016-05-22T01:32:42.294Z,952.5
2016-05-22T01:32:52.294Z,952.6
2016-05-22T01:33:02.138Z,952.6
2016-05-22T01:33:12.294Z,952.7
2016-05-22T01:33:22.297Z,952.7
2016-05-22T01:33:32.125Z,952.6
2016-05-22T01:33:42.297Z,952.6
2016-05-22T01:33:52.282Z,952.6
2016-05-22T01:34:02.266Z,952.7
2016-05-22T01:34:12.266Z,952.7
2016-05-22T01:34:22.284Z,952.7
2016-05-22T01:34:32.143Z,952.7
2016-05-22T01:34:42.268Z,952.8
2016-05-22T01:34:52.268Z,952.7
2016-05-22T01:35:02.112Z,952.8
2016-05-22T01:35:12.252Z,952.8
2016-05-22T01:35:22.271Z,952.8
2016-05-22T01:35:32.255Z,952.8
2016-05-22T01:35:42.255Z,952.8
2016-05-22T01:35:52.099Z,952.9
2016-05-22T01:36:02.255Z,952.8
2016-05-22T01:36:12.084Z,952.8
2016-05-22T01:36:22.258Z,952.8
2016-05-22T01:36:32.258Z,952.9
2016-05-22T01:36:42.087Z,952.9
2016-05-22T01:36:52.102Z,952.9
2016-05-22T01:37:02.243Z,952.9
2016-05-22T01:37:12.071Z,952.9
2016-05-22T01:37:22.246Z,952.9
2016-05-22T01:37:32.074Z,952.9
2016-05-22T01:37:42.230Z,953
2016-05-22T01:37:52.074Z,953
2016-05-22T01:38:02.230Z,953
2016-05-22T01:38:12.215Z,953
2016-05-22T01:38:21.951Z,953
2016-05-22T01:38:32.232Z,953
2016-05-22T01:38:42.217Z,953
2016-05-22T01:38:52.201Z,953
2016-05-22T01:39:02.248Z,953
2016-05-22T01:39:12.217Z,953.1
2016-05-22T01:39:22.204Z,953
2016-05-22T01:39:32.063Z,953
2016-05-22T01:39:42.048Z,953
2016-05-22T01:39:52.188Z,953.1
2016-05-22T01:40:02.204Z,953.1
2016-05-22T01:40:12.032Z,953
2016-05-22T01:40:22.206Z,953.2
2016-05-22T01:40:32.190Z,953.2
2016-05-22T01:40:42.065Z,953
2016-05-22T01:40:52.018Z,953.1
2016-05-22T01:41:02.190Z,953.1
2016-05-22T01:41:12.190Z,953.2
2016-05-22T01:41:22.179Z,953.2
2016-05-22T01:41:32.069Z,953.2
2016-05-22T01:41:42.179Z,953.3
2016-05-22T01:41:52.179Z,953.2
2016-05-22T01:42:02.179Z,953.2
2016-05-22T01:42:12.694Z,953.3
2016-05-22T01:42:21.946Z,953.2
2016-05-22T01:42:32.040Z,953.2
2016-05-22T01:42:43.071Z,953.3
2016-05-22T01:42:52.743Z,953.3
2016-05-22T01:43:02.024Z,953.2
2016-05-22T01:43:12.446Z,953.3
2016-05-22T01:43:22.168Z,953.3
2016-05-22T01:43:32.168Z,953.3
2016-05-22T01:43:41.996Z,953.3
2016-05-22T01:43:52.152Z,953.4
2016-05-22T01:44:02.152Z,953.3
2016-05-22T01:44:11.981Z,953.3
2016-05-22T01:44:22.154Z,953.3
2016-05-22T01:44:32.154Z,953.3
2016-05-22T01:44:42.139Z,953.4
2016-05-22T01:44:51.967Z,953.2
2016-05-22T01:45:02.139Z,953.3
2016-05-22T01:45:12.123Z,953.3
2016-05-22T01:45:22.126Z,953.3
2016-05-22T01:45:31.861Z,953.4
2016-05-22T01:45:41.970Z,953.4
2016-05-22T01:45:52.126Z,953.4
2016-05-22T01:46:02.126Z,953.4
2016-05-22T01:46:12.111Z,953.5
2016-05-22T01:46:22.129Z,953.4
2016-05-22T01:46:31.817Z,953.4
2016-05-22T01:46:41.973Z,953.5
2016-05-22T01:46:52.114Z,953.4
2016-05-22T01:47:02.098Z,953.4
2016-05-22T01:47:11.645Z,953.5
2016-05-22T01:47:21.960Z,953.5
2016-05-22T01:47:32.117Z,953.5
2016-05-22T01:47:42.085Z,953.5
2016-05-22T01:47:52.085Z,953.5
2016-05-22T01:48:02.132Z,953.5
2016-05-22T01:48:12.070Z,953.5
2016-05-22T01:48:22.087Z,953.5
2016-05-22T01:48:32.103Z,953.5
2016-05-22T01:48:42.087Z,953.5
2016-05-22T01:48:52.072Z,953.5
2016-05-22T01:49:01.931Z,953.5
2016-05-22T01:49:11.900Z,953.5
2016-05-22T01:49:21.934Z,953.6
2016-05-22T01:49:32.090Z,953.6
2016-05-22T01:49:42.075Z,953.6
2016-05-22T01:49:52.059Z,953.5
2016-05-22T01:50:01.918Z,953.5
2016-05-22T01:50:11.887Z,953.7
2016-05-22T01:50:21.906Z,953.6
2016-05-22T01:50:32.078Z,953.6
2016-05-22T01:50:42.046Z,953.6
2016-05-22T01:50:52.078Z,953.6
2016-05-22T01:51:01.890Z,953.6
2016-05-22T01:51:12.031Z,953.7
2016-05-22T01:51:22.033Z,953.6
2016-05-22T01:51:32.033Z,953.5
2016-05-22T01:51:41.908Z,953.7
2016-05-22T01:51:52.033Z,953.6
2016-05-22T01:52:02.017Z,953.7
2016-05-22T01:52:12.048Z,953.7
2016-05-22T01:52:22.036Z,953.7
2016-05-22T01:52:31.911Z,953.7
2016-05-22T01:52:41.880Z,953.7
2016-05-22T01:52:52.020Z,953.7
2016-05-22T01:53:02.051Z,953.7
2016-05-22T01:53:12.020Z,953.7
2016-05-22T01:53:22.038Z,953.8
2016-05-22T01:53:32.022Z,953.8
2016-05-22T01:53:41.866Z,953.7
2016-05-22T01:53:51.725Z,953.7
2016-05-22T01:54:02.038Z,953.8
2016-05-22T01:54:12.007Z,953.8
2016-05-22T01:54:21.839Z,953.8
2016-05-22T01:54:31.870Z,953.8
2016-05-22T01:54:41.854Z,953.8
2016-05-22T01:54:51.995Z,953.8
2016-05-22T01:55:01.698Z,953.9
2016-05-22T01:55:12.011Z,953.9
2016-05-22T01:55:21.856Z,953.9
2016-05-22T01:55:31.856Z,953.8
2016-05-22T01:55:41.825Z,954
2016-05-22T01:55:51.981Z,953.9
2016-05-22T01:56:01.997Z,954
2016-05-22T01:56:11.841Z,953.9
2016-05-22T01:56:21.969Z,953.9
2016-05-22T01:56:32.000Z,954.1
2016-05-22T01:56:41.984Z,954
2016-05-22T01:56:51.828Z,954
2016-05-22T01:57:01.969Z,954
2016-05-22T01:57:12.609Z,954
2016-05-22T01:57:21.689Z,954
2016-05-22T01:57:31.846Z,954.1
2016-05-22T01:57:42.439Z,954
2016-05-22T01:57:52.049Z,954
2016-05-22T01:58:01.893Z,954.1
2016-05-22T01:58:11.830Z,954.1
2016-05-22T01:58:21.802Z,954.1
2016-05-22T01:58:31.802Z,954.1
2016-05-22T01:58:41.786Z,954.1
2016-05-22T01:58:51.974Z,954.1
2016-05-22T01:59:01.942Z,954.1
2016-05-22T01:59:11.927Z,954.2
2016-05-22T01:59:21.789Z,954.1
2016-05-22T01:59:31.945Z,954.1
2016-05-22T01:59:42.336Z,954.1
2016-05-22T01:59:51.774Z,954.2
2016-05-22T02:00:01.914Z,954.1
2016-05-22T02:00:11.633Z,954.2
2016-05-22T02:00:21.917Z,954.2
2016-05-22T02:00:31.933Z,954.2
2016-05-22T02:00:41.917Z,954.3
2016-05-22T02:00:51.761Z,954.2
2016-05-22T02:01:01.902Z,954.2
2016-05-22T02:01:11.777Z,954.2
2016-05-22T02:01:21.919Z,954.2
2016-05-22T02:01:31.935Z,954.2
2016-05-22T02:01:41.904Z,954.3
2016-05-22T02:01:51.904Z,954.3
2016-05-22T02:02:01.904Z,954.3
2016-05-22T02:02:11.747Z,954.2
2016-05-22T02:02:21.750Z,954.3
2016-05-22T02:02:31.907Z,954.4
2016-05-22T02:02:41.891Z,954.2
2016-05-22T02:02:51.891Z,954.3
2016-05-22T02:03:01.907Z,954.3
2016-05-22T02:03:11.891Z,954.4
2016-05-22T02:03:21.721Z,954.3
2016-05-22T02:03:31.893Z,954.3
2016-05-22T02:03:41.862Z,954.3
2016-05-22T02:03:51.877Z,954.3
2016-05-22T02:04:01.893Z,954.4
2016-05-22T02:04:11.721Z,954.4
2016-05-22T02:04:21.866Z,954.4
2016-05-22T02:04:31.725Z,954.4
2016-05-22T02:04:41.866Z,954.3
2016-05-22T02:04:51.850Z,954.4
2016-05-22T02:05:01.881Z,954.3
2016-05-22T02:05:11.850Z,954.3
2016-05-22T02:05:21.868Z,954.3
2016-05-22T02:05:31.711Z,954.4
2016-05-22T02:05:41.852Z,954.3
2016-05-22T02:05:51.696Z,954.3
2016-05-22T02:06:01.711Z,954.3
2016-05-22T02:06:11.727Z,954.3
2016-05-22T02:06:21.854Z,954.4
2016-05-22T02:06:31.698Z,954.3
2016-05-22T02:06:41.838Z,954.4
2016-05-22T02:06:51.838Z,954.3
2016-05-22T02:07:01.823Z,954.4
2016-05-22T02:07:11.823Z,954.3
2016-05-22T02:07:21.671Z,954.4
2016-05-22T02:07:31.827Z,954.3
2016-05-22T02:07:41.530Z,954.3
2016-05-22T02:07:51.514Z,954.4
2016-05-22T02:08:01.842Z,954.4
2016-05-22T02:08:11.811Z,954.3
2016-05-22T02:08:21.657Z,954.3
2016-05-22T02:08:31.688Z,954.3
2016-05-22T02:08:41.798Z,954.4
2016-05-22T02:08:51.813Z,954.3
2016-05-22T02:09:01.813Z,954.3
2016-05-22T02:09:11.798Z,954.4
2016-05-22T02:09:21.816Z,954.3
2016-05-22T02:09:31.801Z,954.4
2016-05-22T02:09:41.488Z,954.3